Time;durP1;ratioP1;P1;durP2;ratioP2;P2;SDS_P1;SDS_P2;PMS_P1;PMS_P2;Temp;Humidity;BMP_temperature;BMP_pressure;BME280_temperature;BME280_humidity;BME280_pressure;Samples;Min_cycle;Max_cycle;Signal;HPM_P1;HPM_P2
2021/12/26 00:01:31;;;;;;;3.37;1.70;;;-2.50;76.70;;;;;;6185861;23;20001;-87
2021/12/26 00:04:00;;;;;;;3.47;1.80;;;-2.50;77.10;;;;;;6186067;23;20334;-89
2021/12/26 00:06:28;;;;;;;3.17;1.70;;;-2.40;77.40;;;;;;6185980;23;20108;-89
2021/12/26 00:08:56;;;;;;;4.53;2.03;;;-2.40;76.90;;;;;;6186636;23;20474;-87
2021/12/26 00:11:51;;;;;;;3.40;1.90;;;-2.40;76.90;;;;;;6167127;23;19997;-87
2021/12/26 00:14:17;;;;;;;3.60;2.00;;;-2.30;76.60;;;;;;6211521;23;20012;-87
2021/12/26 00:16:42;;;;;;;4.03;2.03;;;-2.30;76.70;;;;;;6212456;23;19994;-87
2021/12/26 00:19:08;;;;;;;3.37;1.83;;;-2.30;76.60;;;;;;6195425;23;20032;-87
2021/12/26 00:21:35;;;;;;;4.10;1.43;;;-2.30;76.80;;;;;;6190209;23;20008;-86
2021/12/26 00:24:01;;;;;;;3.90;1.87;;;-2.30;76.80;;;;;;6188845;23;20044;-87
2021/12/26 00:26:32;;;;;;;6.00;2.03;;;-2.30;76.90;;;;;;6187638;23;20001;-85
2021/12/26 00:28:59;;;;;;;;;;;-2.30;77.80;;;;;;6188161;23;20012;-87
2021/12/26 00:31:25;;;;;;;4.40;1.83;;;-2.20;76.50;;;;;;6187818;23;19923;-86
2021/12/26 00:33:53;;;;;;;2.43;1.63;;;-2.30;76.20;;;;;;6188899;23;20005;-87
2021/12/26 00:36:21;;;;;;;3.73;1.70;;;-2.30;76.30;;;;;;6188599;23;20008;-86
2021/12/26 00:38:47;;;;;;;7.97;2.00;;;-2.30;76.40;;;;;;6188402;23;20441;-86
2021/12/26 00:41:18;;;;;;;3.90;1.50;;;-2.30;76.20;;;;;;6188426;23;20002;-87
2021/12/26 00:43:45;;;;;;;3.07;1.90;;;-2.30;76.20;;;;;;6163744;23;20024;-87
2021/12/26 00:46:21;;;;;;;2.50;1.47;;;-2.30;76.30;;;;;;6187738;23;19997;-87
2021/12/26 00:48:47;;;;;;;2.43;1.60;;;-2.30;76.40;;;;;;6189390;23;20415;-87
2021/12/26 00:51:13;;;;;;;3.53;1.90;;;-2.40;76.50;;;;;;6187339;23;20011;-87
2021/12/26 00:53:39;;;;;;;2.77;1.53;;;-2.40;76.10;;;;;;6187475;23;20004;-87
2021/12/26 00:56:04;;;;;;;3.77;1.70;;;-2.40;76.40;;;;;;6186957;23;20423;-87
2021/12/26 00:58:31;;;;;;;3.77;1.50;;;-2.40;76.50;;;;;;6187341;23;20035;-86
2021/12/26 01:01:00;;;;;;;3.80;1.63;;;-2.40;76.50;;;;;;6187204;23;20001;-86
2021/12/26 01:03:27;;;;;;;3.60;1.60;;;-2.40;76.40;;;;;;6187587;23;20005;-86
2021/12/26 01:05:59;;;;;;;3.60;1.93;;;-2.40;76.40;;;;;;6186979;23;20385;-87
2021/12/26 01:08:31;;;;;;;3.75;1.70;;;-2.40;76.80;;;;;;6187754;23;20001;-88
2021/12/26 01:11:16;;;;;;;4.43;1.40;;;-2.40;76.60;;;;;;6187912;23;20001;-87
2021/12/26 01:13:43;;;;;;;3.20;1.70;;;-2.40;76.50;;;;;;6187409;23;20400;-88
2021/12/26 01:16:13;;;;;;;3.13;1.80;;;-2.40;76.70;;;;;;6187986;23;20008;-89
2021/12/26 01:18:46;;;;;;;2.77;1.57;;;-2.50;76.20;;;;;;6187835;23;20502;-87
2021/12/26 01:21:19;;;;;;;4.67;2.10;;;-2.50;76.50;;;;;;6187855;23;20001;-87
2021/12/26 01:23:52;;;;;;;3.23;1.70;;;-2.50;76.60;;;;;;6171075;23;20021;-87
2021/12/26 01:26:18;;;;;;;6.53;1.80;;;-2.40;77.00;;;;;;6210919;23;20009;-87
2021/12/26 01:28:44;;;;;;;4.30;2.10;;;-2.40;77.20;;;;;;6211093;23;20032;-87
2021/12/26 01:31:11;;;;;;;2.43;1.63;;;-2.40;77.30;;;;;;6210475;23;19985;-87
2021/12/26 01:33:39;;;;;;;4.03;1.70;;;-2.30;77.30;;;;;;6204188;23;20013;-86
2021/12/26 01:36:05;;;;;;;3.60;2.03;;;-2.30;77.60;;;;;;6187200;23;20050;-87
2021/12/26 01:38:31;;;;;;;4.80;1.83;;;-2.30;77.10;;;;;;6162073;23;20005;-86
2021/12/26 01:41:08;;;;;;;3.17;1.90;;;-2.30;77.40;;;;;;6186269;23;20075;-87
2021/12/26 01:43:39;;;;;;;5.83;1.80;;;-2.30;77.00;;;;;;6188096;23;20016;-85
2021/12/26 01:46:10;;;;;;;4.25;1.95;;;-2.30;77.20;;;;;;6162358;23;20001;-85
2021/12/26 01:48:36;;;;;;;;;;;-2.30;76.60;;;;;;6162125;23;20450;-85
2021/12/26 01:51:02;;;;;;;2.47;1.50;;;-2.30;77.10;;;;;;6185913;23;19900;-85
2021/12/26 01:53:36;;;;;;;2.60;1.70;;;-2.30;76.90;;;;;;6185917;23;20008;-86
2021/12/26 01:56:15;;;;;;;3.07;1.77;;;-2.30;76.50;;;;;;6186434;23;20005;-84
2021/12/26 01:58:40;;;;;;;4.43;1.83;;;-2.30;76.80;;;;;;6185887;23;20084;-85
2021/12/26 02:01:12;;;;;;;3.03;1.60;;;-2.30;77.10;;;;;;6185583;23;20055;-85
2021/12/26 02:03:44;;;;;;;3.03;1.70;;;-2.20;77.20;;;;;;6185735;23;20064;-85
2021/12/26 02:06:16;;;;;;;2.97;1.50;;;-2.20;76.70;;;;;;6162715;23;20085;-87
2021/12/26 02:08:42;;;;;;;4.50;1.75;;;-2.30;76.50;;;;;;6162646;23;20344;-87
2021/12/26 02:11:10;;;;;;;5.07;2.10;;;-2.30;76.20;;;;;;6187030;23;20035;-86
2021/12/26 02:13:39;;;;;;;3.37;1.77;;;-2.40;76.10;;;;;;6186882;23;20005;-87
2021/12/26 02:16:09;;;;;;;3.50;1.70;;;-2.40;76.20;;;;;;6186583;23;20009;-87
2021/12/26 02:18:39;;;;;;;5.07;1.70;;;-2.40;76.30;;;;;;6186756;23;20128;-85
2021/12/26 02:28:47;;;;;;;6.20;1.60;;;-2.50;76.30;;;;;;6187016;23;20335;-87
2021/12/26 02:31:16;;;;;;;4.13;1.93;;;-2.50;76.10;;;;;;6186841;23;19997;-86
2021/12/26 02:33:59;;;;;;;3.50;1.87;;;-2.50;76.10;;;;;;6186901;23;20029;-87
2021/12/26 02:36:25;;;;;;;3.77;1.93;;;-2.60;75.80;;;;;;6188338;23;20171;-88
2021/12/26 02:38:51;;;;;;;3.27;1.80;;;-2.60;76.00;;;;;;6164356;23;20056;-86
2021/12/26 02:41:20;;;;;;;4.20;1.73;;;-2.60;76.10;;;;;;6192008;23;20005;-86
2021/12/26 02:43:46;;;;;;;4.80;2.00;;;-2.60;76.00;;;;;;6213402;23;20001;-86
2021/12/26 02:46:12;;;;;;;2.93;1.80;;;-2.50;75.70;;;;;;6212225;23;20012;-86
2021/12/26 02:48:40;;;;;;;3.60;1.60;;;-2.60;75.80;;;;;;6206696;23;20007;-87
2021/12/26 02:51:07;;;;;;;3.30;2.07;;;-2.60;75.90;;;;;;6162993;23;20001;-86
2021/12/26 02:53:34;;;;;;;3.53;1.83;;;-2.60;76.10;;;;;;6187113;23;20012;-87
2021/12/26 02:56:03;;;;;;;4.17;1.80;;;-2.50;76.30;;;;;;6186847;23;20001;-87
2021/12/26 02:58:32;;;;;;;3.10;1.60;;;-2.50;75.80;;;;;;6187199;23;20063;-87
2021/12/26 03:01:17;;;;;;;2.13;1.50;;;-2.60;75.50;;;;;;6186702;23;20056;-87
2021/12/26 03:03:44;;;;;;;4.17;1.97;;;-2.60;75.50;;;;;;6188146;23;20005;-87
2021/12/26 03:06:36;;;;;;;3.80;1.70;;;-2.50;75.60;;;;;;6187583;23;19997;-87
2021/12/26 03:09:04;;;;;;;3.93;1.77;;;-2.50;75.70;;;;;;6189262;23;20044;-88
2021/12/26 03:11:30;;;;;;;4.27;1.90;;;-2.50;75.80;;;;;;6192109;23;20075;-86
2021/12/26 03:14:05;;;;;;;2.77;1.40;;;-2.60;75.50;;;;;;6196579;23;20012;-87
2021/12/26 03:16:31;;;;;;;2.50;1.73;;;-2.50;75.60;;;;;;6211240;23;20009;-86
2021/12/26 03:19:03;;;;;;;2.77;1.47;;;-2.50;75.50;;;;;;6212275;23;19997;-87
2021/12/26 03:21:35;;;;;;;;;;;-2.50;75.90;;;;;;6212237;23;20028;-87
2021/12/26 03:24:01;;;;;;;2.67;1.67;;;-2.50;75.00;;;;;;6211889;23;19896;-86
2021/12/26 03:26:30;;;;;;;2.93;1.90;;;-2.60;75.00;;;;;;6212500;23;20024;-87
2021/12/26 03:28:55;;;;;;;3.20;1.83;;;-2.60;75.20;;;;;;6187787;23;19989;-87
2021/12/26 03:31:34;;;;;;;3.60;1.60;;;-2.60;75.00;;;;;;6210554;23;20363;-86
2021/12/26 03:34:03;;;;;;;4.50;1.60;;;-2.60;74.90;;;;;;6201031;23;20005;-87
2021/12/26 03:36:31;;;;;;;3.67;1.97;;;-2.60;75.20;;;;;;6198806;23;20001;-87
2021/12/26 03:39:03;;;;;;;2.57;1.50;;;-2.60;75.40;;;;;;6203479;23;20001;-86
2021/12/26 03:41:29;;;;;;;4.17;1.83;;;-2.60;75.30;;;;;;6204045;23;19997;-86
2021/12/26 03:43:55;;;;;;;2.70;1.40;;;-2.60;75.00;;;;;;6192907;23;20044;-86
2021/12/26 03:46:21;;;;;;;3.43;1.43;;;-2.60;75.00;;;;;;6189607;23;20001;-87
2021/12/26 03:48:46;;;;;;;3.10;1.80;;;-2.60;74.80;;;;;;6187159;23;20009;-86
2021/12/26 03:51:15;;;;;;;3.53;1.50;;;-2.60;74.80;;;;;;6189271;23;20008;-86
2021/12/26 03:53:40;;;;;;;2.67;1.47;;;-2.60;75.00;;;;;;6190215;23;20001;-87
2021/12/26 03:56:06;;;;;;;4.23;1.70;;;-2.60;75.20;;;;;;6195558;23;20028;-86
2021/12/26 03:58:32;;;;;;;2.80;1.60;;;-2.60;74.40;;;;;;6214179;23;20001;-86
2021/12/26 04:00:58;;;;;;;3.13;1.60;;;-2.60;74.50;;;;;;6214411;23;20000;-87
2021/12/26 04:03:27;;;;;;;4.20;1.90;;;-2.60;74.70;;;;;;6212333;23;20016;-87
2021/12/26 04:05:53;;;;;;;4.77;1.53;;;-2.60;74.80;;;;;;6194876;23;20442;-85
2021/12/26 04:08:18;;;;;;;2.00;1.47;;;-2.60;74.50;;;;;;6193986;23;19997;-85
2021/12/26 04:10:47;;;;;;;2.93;1.83;;;-2.70;74.60;;;;;;6194791;23;20001;-87
2021/12/26 04:13:15;;;;;;;2.60;1.50;;;-2.70;75.40;;;;;;6189355;23;20007;-87
2021/12/26 04:15:41;;;;;;;3.77;1.40;;;-2.70;74.50;;;;;;6188775;23;20000;-87
2021/12/26 04:18:07;;;;;;;3.37;1.70;;;-2.70;74.80;;;;;;6163673;23;20383;-85
2021/12/26 04:20:36;;;;;;;2.47;1.60;;;-2.70;75.10;;;;;;6163451;23;20330;-87
2021/12/26 04:23:04;;;;;;;3.30;1.50;;;-2.70;74.50;;;;;;6187719;23;20005;-87
2021/12/26 04:25:33;;;;;;;2.13;1.60;;;-2.80;74.40;;;;;;6162914;23;20079;-87
2021/12/26 04:27:59;;;;;;;4.20;1.63;;;-2.80;74.40;;;;;;6162666;23;20017;-87
2021/12/26 04:30:26;;;;;;;3.00;1.47;;;-2.80;74.50;;;;;;6188305;23;20021;-85
2021/12/26 04:32:53;;;;;;;2.93;1.73;;;-2.80;74.80;;;;;;6187999;23;20001;-85
2021/12/26 04:35:19;;;;;;;4.57;1.90;;;-2.80;74.50;;;;;;6188026;23;20020;-86
2021/12/26 04:37:45;;;;;;;2.27;1.67;;;-2.70;74.70;;;;;;6188389;23;19997;-86
2021/12/26 04:40:13;;;;;;;3.33;1.53;;;-2.70;74.80;;;;;;6163172;23;20058;-85
2021/12/26 04:42:41;;;;;;;3.50;1.53;;;-2.70;74.70;;;;;;6187400;23;20123;-86
2021/12/26 04:45:09;;;;;;;2.60;1.60;;;-2.70;74.20;;;;;;6186952;23;20427;-86
2021/12/26 04:47:36;;;;;;;2.90;1.60;;;-2.80;74.00;;;;;;6187730;23;20323;-86
2021/12/26 04:50:03;;;;;;;3.20;2.00;;;-2.80;74.40;;;;;;6188681;23;20080;-84
2021/12/26 04:52:35;;;;;;;3.13;1.70;;;-2.90;74.00;;;;;;6162445;23;20398;-85
2021/12/26 04:55:05;;;;;;;3.28;1.70;;;-2.90;73.70;;;;;;6187043;23;20005;-83
2021/12/26 04:57:32;;;;;;;2.43;1.43;;;-2.90;74.20;;;;;;6187998;23;19997;-84
2021/12/26 04:59:58;;;;;;;3.17;1.47;;;-2.90;74.50;;;;;;6189058;23;19997;-87
2021/12/26 05:02:24;;;;;;;2.67;1.67;;;-2.90;74.30;;;;;;6187032;23;20013;-87
2021/12/26 05:04:51;;;;;;;3.20;1.27;;;-2.90;74.20;;;;;;6188241;23;20481;-86
2021/12/26 05:07:17;;;;;;;3.57;1.50;;;-2.90;74.30;;;;;;6188096;23;20005;-87
2021/12/26 05:09:45;;;;;;;2.93;2.00;;;-2.90;74.60;;;;;;6190521;23;19988;-86
2021/12/26 05:12:11;;;;;;;3.50;1.80;;;-2.90;74.30;;;;;;6212405;23;19986;-86
2021/12/26 05:14:40;;;;;;;4.00;1.77;;;-2.90;74.20;;;;;;6213822;23;20016;-84
2021/12/26 05:17:06;;;;;;;2.60;1.37;;;-2.80;74.50;;;;;;6213425;23;19994;-86
2021/12/26 05:19:34;;;;;;;3.03;1.70;;;-2.80;74.50;;;;;;6188532;23;20152;-87
2021/12/26 05:22:00;;;;;;;6.23;1.40;;;-2.80;74.10;;;;;;6187982;23;20411;-88
2021/12/26 05:24:26;;;;;;;2.90;1.40;;;-2.80;73.70;;;;;;6187624;23;20001;-86
2021/12/26 05:26:51;;;;;;;3.67;2.03;;;-2.90;73.80;;;;;;6186833;23;20013;-87
2021/12/26 05:29:17;;;;;;;4.47;1.70;;;-2.90;74.00;;;;;;6186534;23;20138;-86
2021/12/26 05:31:43;;;;;;;2.93;1.60;;;-2.90;74.10;;;;;;6188278;23;20009;-85
2021/12/26 05:34:11;;;;;;;1.90;1.30;;;-2.90;73.80;;;;;;6162095;23;20327;-87
2021/12/26 05:36:40;;;;;;;3.33;1.60;;;-3.00;73.60;;;;;;6162541;23;20363;-87
2021/12/26 05:39:11;;;;;;;2.87;1.20;;;-2.90;74.30;;;;;;6187193;23;20061;-87
2021/12/26 05:41:38;;;;;;;4.57;1.50;;;-2.80;74.70;;;;;;6187464;23;20004;-88
2021/12/26 05:44:05;;;;;;;3.60;1.60;;;-2.80;74.40;;;;;;6186953;23;20012;-87
2021/12/26 05:46:31;;;;;;;3.40;1.57;;;-2.80;74.10;;;;;;6186511;23;20022;-86
2021/12/26 05:48:59;;;;;;;2.27;1.50;;;-2.80;74.30;;;;;;6187201;23;20002;-86
2021/12/26 05:51:25;;;;;;;3.00;1.47;;;-2.80;74.40;;;;;;6186735;23;20001;-86
2021/12/26 05:53:51;;;;;;;2.33;1.50;;;-2.80;73.80;;;;;;6186990;23;20005;-88
2021/12/26 05:56:17;;;;;;;3.50;1.37;;;-2.80;74.10;;;;;;6186379;23;20067;-86
2021/12/26 05:58:45;;;;;;;4.70;1.47;;;-2.80;73.80;;;;;;6186432;23;20005;-87
2021/12/26 06:01:14;;;;;;;3.47;1.50;;;-2.80;74.10;;;;;;6186725;23;20059;-88
2021/12/26 06:03:42;;;;;;;2.17;1.30;;;-2.80;74.40;;;;;;6187989;23;20084;-86
2021/12/26 06:06:08;;;;;;;3.40;1.90;;;-2.80;74.20;;;;;;6186233;23;20064;-87
2021/12/26 06:08:37;;;;;;;2.97;1.60;;;-2.80;73.80;;;;;;6186334;23;19997;-86
2021/12/26 06:11:03;;;;;;;2.80;1.70;;;-2.70;73.80;;;;;;6186651;23;19997;-87
2021/12/26 06:13:31;;;;;;;2.80;1.70;;;-2.80;74.00;;;;;;6186757;23;20008;-87
2021/12/26 06:16:00;;;;;;;3.00;1.30;;;-2.70;74.10;;;;;;6187872;23;20453;-86
2021/12/26 06:18:29;;;;;;;2.73;1.60;;;-2.70;74.00;;;;;;6186581;23;20051;-86
2021/12/26 06:20:55;;;;;;;2.30;1.37;;;-2.80;74.60;;;;;;6186764;23;20006;-87
2021/12/26 06:23:21;;;;;;;2.93;1.50;;;-2.70;74.00;;;;;;6187540;23;20035;-86
2021/12/26 06:25:49;;;;;;;6.23;1.67;;;-2.70;74.10;;;;;;6208874;23;20065;-86
2021/12/26 06:28:15;;;;;;;3.37;1.43;;;-2.70;74.30;;;;;;6187488;23;20017;-87
2021/12/26 06:30:41;;;;;;;3.33;2.00;;;-2.60;74.60;;;;;;6210936;23;20032;-86
2021/12/26 06:33:07;;;;;;;3.20;1.60;;;-2.60;74.30;;;;;;6192637;23;20009;-87
2021/12/26 06:35:36;;;;;;;4.60;1.40;;;-2.60;74.20;;;;;;6161886;23;20001;-86
2021/12/26 06:38:02;;;;;;;2.97;1.90;;;-2.50;74.20;;;;;;6187071;23;20001;-86
2021/12/26 06:40:27;;;;;;;2.80;1.50;;;-2.50;74.20;;;;;;6186857;23;20005;-88
2021/12/26 06:42:53;;;;;;;5.80;1.77;;;-2.50;74.60;;;;;;6186361;23;20419;-86
2021/12/26 06:45:19;;;;;;;3.57;1.70;;;-2.50;73.70;;;;;;6186575;23;20453;-86
2021/12/26 06:47:50;;;;;;;3.67;1.53;;;-2.50;74.00;;;;;;6186185;23;20005;-86
2021/12/26 06:50:21;;;;;;;3.25;1.98;;;-2.50;74.50;;;;;;6186537;23;20008;-87
2021/12/26 06:52:48;;;;;;;2.77;1.60;;;-2.50;74.00;;;;;;6187630;23;20012;-88
2021/12/26 06:55:14;;;;;;;3.27;1.57;;;-2.50;73.70;;;;;;6186388;23;20071;-86
2021/12/26 06:57:40;;;;;;;2.10;1.50;;;-2.50;73.90;;;;;;6186114;23;20446;-87
2021/12/26 07:00:12;;;;;;;2.60;1.63;;;-2.40;74.20;;;;;;6186528;23;20008;-85
2021/12/26 07:02:38;;;;;;;3.50;1.60;;;-2.40;74.10;;;;;;6186043;23;20058;-87
2021/12/26 07:05:04;;;;;;;3.30;1.80;;;-2.30;74.40;;;;;;6186674;23;20106;-86
2021/12/26 07:07:30;;;;;;;1.50;1.27;;;-2.30;74.50;;;;;;6186037;23;20000;-86
2021/12/26 07:09:56;;;;;;;2.30;1.30;;;-2.30;74.40;;;;;;6186136;23;20009;-87
2021/12/26 07:12:22;;;;;;;1.67;1.23;;;-2.20;74.30;;;;;;6185590;23;20061;-86
2021/12/26 07:14:48;;;;;;;3.60;1.50;;;-2.30;73.90;;;;;;6185707;23;20004;-87
2021/12/26 07:17:14;;;;;;;3.60;1.37;;;-2.30;74.10;;;;;;6186244;23;20012;-87
2021/12/26 07:19:40;;;;;;;3.20;1.60;;;-2.30;74.40;;;;;;6185923;23;20008;-87
2021/12/26 07:22:09;;;;;;;2.37;1.60;;;-2.30;74.20;;;;;;6185983;23;20001;-87
2021/12/26 07:24:34;;;;;;;3.50;1.33;;;-2.30;74.60;;;;;;6186459;23;20001;-86
2021/12/26 07:27:04;;;;;;;2.50;1.70;;;-2.20;75.00;;;;;;6185723;23;20419;-87
2021/12/26 07:29:33;;;;;;;2.87;1.80;;;-2.20;74.90;;;;;;6186213;23;20012;-86
2021/12/26 07:31:59;;;;;;;2.97;1.47;;;-2.20;74.80;;;;;;6186765;23;20423;-86
2021/12/26 07:34:33;;;;;;;2.80;1.67;;;-2.10;75.20;;;;;;6185963;23;20084;-87
2021/12/26 07:37:00;;;;;;;2.03;1.23;;;-2.10;75.20;;;;;;6186627;23;20005;-87
2021/12/26 07:39:26;;;;;;;2.30;1.43;;;-2.00;75.20;;;;;;6193439;23;19997;-87
2021/12/26 07:41:57;;;;;;;3.77;1.73;;;-2.00;75.60;;;;;;6206921;23;20009;-86
2021/12/26 07:44:30;;;;;;;4.47;1.77;;;-1.90;76.00;;;;;;6213070;23;20017;-85
2021/12/26 07:46:59;;;;;;;3.07;1.80;;;-1.90;75.00;;;;;;6205132;23;20009;-84
2021/12/26 07:49:35;;;;;;;;;;;;;;;;;;;;;
2021/12/26 07:52:03;;;;;;;2.97;1.67;;;-2.00;75.10;;;;;;6187563;23;20381;-87
2021/12/26 07:54:35;;;;;;;2.60;1.40;;;-2.00;74.90;;;;;;6186044;23;20008;-86
2021/12/26 07:57:20;;;;;;;4.80;1.80;;;-2.00;75.20;;;;;;6186388;23;20009;-86
2021/12/26 07:59:46;;;;;;;3.47;1.67;;;-2.00;75.40;;;;;;6161528;23;20016;-87
2021/12/26 08:02:34;;;;;;;;;;;;;;;;;;;;;
2021/12/26 08:05:04;;;;;;;3.10;1.47;;;-1.90;75.80;;;;;;6186286;23;20101;-87
2021/12/26 08:07:33;;;;;;;3.07;1.80;;;-2.00;75.70;;;;;;6187414;23;20004;-87
2021/12/26 08:09:59;;;;;;;3.33;1.40;;;-2.00;75.70;;;;;;6186177;23;19997;-87
2021/12/26 08:12:26;;;;;;;4.00;1.70;;;-2.10;76.00;;;;;;6160719;23;20012;-85
2021/12/26 08:15:01;;;;;;;3.47;1.60;;;-2.00;76.10;;;;;;6186546;23;20015;-86
2021/12/26 08:17:58;;;;;;;2.27;1.57;;;-2.00;76.20;;;;;;6186766;23;20020;-88
2021/12/26 08:20:23;;;;;;;3.33;1.43;;;-2.00;76.30;;;;;;6185476;23;20005;-86
2021/12/26 08:22:55;;;;;;;3.63;2.30;;;-2.00;76.00;;;;;;6185854;23;20036;-87
2021/12/26 08:25:23;;;;;;;2.90;1.90;;;-2.00;76.40;;;;;;6186857;23;20060;-87
2021/12/26 08:27:52;;;;;;;3.33;1.50;;;-2.00;76.30;;;;;;6161488;23;20018;-88
2021/12/26 08:30:20;;;;;;;3.17;1.73;;;-2.00;76.40;;;;;;6186683;23;20001;-88
2021/12/26 08:32:50;;;;;;;2.90;1.90;;;-1.90;76.70;;;;;;6189520;23;20071;-87
2021/12/26 08:35:19;;;;;;;4.40;2.10;;;-2.00;76.50;;;;;;6186651;23;19997;-87
2021/12/26 08:37:48;;;;;;;3.73;1.80;;;-2.00;76.60;;;;;;6187120;23;20087;-88
2021/12/26 08:40:16;;;;;;;2.77;1.60;;;-1.90;76.60;;;;;;6187593;23;20046;-85
2021/12/26 08:42:52;;;;;;;6.37;2.50;;;-1.90;76.80;;;;;;6187025;23;20009;-86
2021/12/26 08:45:18;;;;;;;4.93;2.37;;;-1.80;76.80;;;;;;6163588;23;20085;-86
2021/12/26 08:47:46;;;;;;;3.17;1.80;;;-1.80;76.80;;;;;;6162467;23;20005;-87
2021/12/26 08:50:13;;;;;;;2.77;1.80;;;-1.80;76.90;;;;;;6197639;23;20004;-87
2021/12/26 08:52:44;;;;;;;3.23;2.10;;;-1.80;76.60;;;;;;6189199;23;20009;-87
2021/12/26 08:55:23;;;;;;;3.25;1.80;;;-1.80;76.80;;;;;;6214466;23;19989;-86
2021/12/26 08:57:55;;;;;;;2.87;1.80;;;-1.80;76.70;;;;;;6214024;23;19989;-87
2021/12/26 09:00:22;;;;;;;2.37;1.67;;;-1.70;76.80;;;;;;6213652;23;19986;-87
2021/12/26 09:02:49;;;;;;;3.27;1.70;;;-1.80;76.70;;;;;;6202264;23;20065;-86
2021/12/26 09:05:15;;;;;;;2.73;1.63;;;-1.80;76.50;;;;;;6193168;23;20091;-86
2021/12/26 09:07:41;;;;;;;2.87;1.80;;;-1.70;76.50;;;;;;6187299;23;20024;-88
2021/12/26 09:10:11;;;;;;;5.63;2.20;;;-1.80;76.40;;;;;;6186864;23;19997;-86
2021/12/26 09:12:40;;;;;;;4.00;1.90;;;-1.80;76.50;;;;;;6162279;23;20016;-86
2021/12/26 09:15:09;;;;;;;3.67;1.67;;;-1.80;76.70;;;;;;6162406;23;20068;-88
2021/12/26 09:17:35;;;;;;;3.00;1.93;;;-1.80;77.10;;;;;;6186129;23;19997;-87
2021/12/26 09:20:01;;;;;;;4.03;2.00;;;-1.80;76.90;;;;;;6186759;23;20001;-85
2021/12/26 09:22:30;;;;;;;7.47;3.77;;;-1.70;77.10;;;;;;6186359;23;20052;-85
2021/12/26 09:25:05;;;;;;;4.13;2.60;;;-1.70;77.40;;;;;;6186191;23;20005;-87
2021/12/26 09:27:33;;;;;;;4.50;2.10;;;-1.70;77.70;;;;;;6186270;23;20013;-88
2021/12/26 09:30:03;;;;;;;3.60;2.40;;;-1.60;77.80;;;;;;6186641;23;20005;-86
2021/12/26 09:32:29;;;;;;;4.50;2.10;;;-1.60;77.70;;;;;;6186521;23;20389;-87
2021/12/26 09:34:55;;;;;;;4.03;2.10;;;-1.50;77.50;;;;;;6186643;23;20001;-88
2021/12/26 09:37:20;;;;;;;3.67;2.03;;;-1.50;77.60;;;;;;6186530;23;20001;-87
2021/12/26 09:39:48;;;;;;;4.03;2.30;;;-1.50;77.50;;;;;;6186623;23;20005;-87
2021/12/26 09:42:17;;;;;;;3.67;2.40;;;-1.50;77.50;;;;;;6186476;23;20005;-88
2021/12/26 09:44:52;;;;;;;2.83;1.93;;;-1.50;77.60;;;;;;6186273;23;20033;-86
2021/12/26 09:47:23;;;;;;;3.87;2.20;;;-1.40;78.40;;;;;;6185844;23;20032;-87
2021/12/26 09:49:48;;;;;;;3.83;2.25;;;-1.40;77.90;;;;;;6161355;23;20006;-87
2021/12/26 09:52:17;;;;;;;2.90;1.90;;;-1.40;78.00;;;;;;6185887;23;20008;-87
2021/12/26 09:54:46;;;;;;;4.30;2.30;;;-1.30;78.30;;;;;;6186823;23;20011;-85
2021/12/26 09:57:13;;;;;;;3.53;2.17;;;-1.30;78.20;;;;;;6188787;23;20003;-86
2021/12/26 09:59:41;;;;;;;3.83;2.23;;;-1.20;78.20;;;;;;6190313;23;20008;-89
2021/12/26 10:02:12;;;;;;;3.20;2.20;;;-1.20;78.30;;;;;;6190731;23;20478;-87
2021/12/26 10:04:43;;;;;;;3.40;2.10;;;-1.10;78.50;;;;;;6189346;23;20044;-87
2021/12/26 10:07:20;;;;;;;5.32;2.92;;;-1.10;78.60;;;;;;6190017;23;20005;-85
2021/12/26 10:09:53;;;;;;;5.47;2.90;;;-1.10;78.80;;;;;;6197407;23;20048;-88
2021/12/26 10:12:20;;;;;;;4.07;2.23;;;-1.00;79.00;;;;;;6212179;23;19996;-85
2021/12/26 10:14:54;;;;;;;3.47;2.27;;;-0.90;79.20;;;;;;6213118;23;20008;-85
2021/12/26 10:17:26;;;;;;;3.37;2.00;;;-0.80;79.00;;;;;;6208973;23;20007;-86
2021/12/26 10:19:59;;;;;;;4.45;2.50;;;-0.80;78.90;;;;;;6187188;23;20001;-86
2021/12/26 10:22:29;;;;;;;5.30;2.87;;;-0.70;79.10;;;;;;6188064;23;20009;-86
2021/12/26 10:24:58;;;;;;;4.72;2.50;;;-0.70;78.80;;;;;;6186053;23;20001;-86
2021/12/26 10:27:31;;;;;;;3.10;2.20;;;-0.60;79.20;;;;;;6185635;23;20001;-87
2021/12/26 10:30:05;;;;;;;4.17;2.50;;;-0.60;79.10;;;;;;6185614;23;20001;-85
2021/12/26 10:32:37;;;;;;;5.37;2.80;;;-0.50;79.20;;;;;;6185155;23;20036;-86
2021/12/26 10:35:13;;;;;;;4.77;2.67;;;-0.50;79.20;;;;;;6185646;23;20056;-86
2021/12/26 10:37:52;;;;;;;5.20;2.87;;;-0.40;79.30;;;;;;6185960;23;20327;-86
2021/12/26 10:40:51;;;;;;;6.40;2.80;;;-0.40;79.00;;;;;;6184994;23;20006;-86
2021/12/26 10:43:19;;;;;;;4.00;2.40;;;-0.40;79.20;;;;;;6186023;23;20005;-85
2021/12/26 10:45:47;;;;;;;3.90;2.60;;;-0.40;79.30;;;;;;6185738;23;20149;-86
2021/12/26 10:48:23;;;;;;;4.83;2.67;;;-0.40;79.50;;;;;;6184525;23;20060;-86
2021/12/26 10:50:51;;;;;;;4.17;2.77;;;-0.30;79.90;;;;;;6187079;23;20001;-85
2021/12/26 10:53:17;;;;;;;8.50;3.10;;;-0.30;80.10;;;;;;6161653;23;20029;-85
2021/12/26 10:55:54;;;;;;;4.23;2.40;;;-0.20;80.20;;;;;;6185972;23;19997;-86
2021/12/26 10:58:23;;;;;;;5.70;2.87;;;-0.10;80.00;;;;;;6187336;23;20446;-85
2021/12/26 11:00:58;;;;;;;6.70;3.37;;;-0.10;79.70;;;;;;6185206;23;20084;-87
2021/12/26 11:03:27;;;;;;;4.40;2.87;;;-0.10;79.50;;;;;;6185877;23;20009;-86
2021/12/26 11:06:07;;;;;;;3.63;2.60;;;-0.10;79.60;;;;;;6185306;23;20001;-87
2021/12/26 11:08:42;;;;;;;6.03;3.00;;;0.00;80.00;;;;;;6186922;23;20485;-85
2021/12/26 11:11:13;;;;;;;5.20;3.10;;;0.00;80.40;;;;;;6185397;23;20005;-88
2021/12/26 11:13:42;;;;;;;6.85;3.50;;;0.10;80.20;;;;;;6185794;23;20068;-87
2021/12/26 11:16:11;;;;;;;5.30;2.90;;;0.10;80.20;;;;;;6185964;23;20369;-88
2021/12/26 11:18:37;;;;;;;3.90;2.70;;;0.10;80.20;;;;;;6186019;23;20454;-87
2021/12/26 11:21:13;;;;;;;5.60;3.13;;;0.10;80.30;;;;;;6186452;23;20497;-87
2021/12/26 11:23:45;;;;;;;5.17;3.17;;;0.20;80.40;;;;;;6185760;23;20009;-87
2021/12/26 11:26:21;;;;;;;4.83;2.87;;;0.20;80.60;;;;;;6163693;23;20005;-87
2021/12/26 11:28:53;;;;;;;4.70;3.00;;;0.20;80.90;;;;;;6211663;23;20004;-87
2021/12/26 11:31:25;;;;;;;5.40;3.27;;;0.30;81.00;;;;;;6188702;23;20000;-90
2021/12/26 11:34:06;;;;;;;7.95;3.55;;;0.30;81.10;;;;;;6211706;23;20020;-92
2021/12/26 11:36:32;;;;;;;5.25;3.03;;;0.40;81.30;;;;;;6189649;23;20002;-88
2021/12/26 11:39:06;;;;;;;4.87;3.10;;;0.40;81.20;;;;;;6185906;23;20005;-87
2021/12/26 11:42:18;;;;;;;5.17;3.10;;;0.50;81.50;;;;;;6186061;23;20069;-88
2021/12/26 11:45:12;;;;;;;;;;;;;;;;;;;;;
2021/12/26 11:48:38;;;;;;;4.10;2.87;;;0.60;81.80;;;;;;6187357;23;20080;-90
2021/12/26 11:51:24;;;;;;;6.68;3.40;;;0.60;82.10;;;;;;6181184;23;20005;-87
2021/12/26 11:53:58;;;;;;;5.40;3.45;;;0.70;82.20;;;;;;6185940;23;20009;-88
2021/12/26 11:56:35;;;;;;;6.57;3.47;;;0.70;81.80;;;;;;6185404;23;20008;-87
2021/12/26 11:59:23;;;;;;;4.67;3.20;;;0.70;81.90;;;;;;6186990;23;19997;-86
2021/12/26 12:02:02;;;;;;;5.73;3.43;;;0.70;82.00;;;;;;6186397;23;20449;-88
2021/12/26 12:04:33;;;;;;;4.97;3.07;;;0.70;82.00;;;;;;6186033;23;20085;-88
2021/12/26 12:07:05;;;;;;;6.40;3.60;;;0.70;82.00;;;;;;6185673;23;20316;-89
2021/12/26 12:09:46;;;;;;;6.60;3.78;;;0.70;82.30;;;;;;6186404;23;20004;-89
2021/12/26 12:12:16;;;;;;;5.50;3.83;;;0.60;82.70;;;;;;6186821;23;20005;-88
2021/12/26 12:15:06;;;;;;;5.87;3.57;;;0.70;82.80;;;;;;6188481;23;20446;-89
2021/12/26 12:17:42;;;;;;;6.55;4.00;;;0.70;83.10;;;;;;6165473;23;20035;-87
2021/12/26 12:20:20;;;;;;;5.10;3.90;;;0.70;83.40;;;;;;6165799;23;20393;-87
2021/12/26 12:23:06;;;;;;;7.53;4.13;;;0.70;83.70;;;;;;6187946;23;20339;-89
2021/12/26 12:25:38;;;;;;;6.75;3.75;;;0.70;83.90;;;;;;6188210;23;20426;-88
2021/12/26 12:28:28;;;;;;;7.03;4.25;;;0.70;84.10;;;;;;6188091;23;20020;-88
2021/12/26 12:31:20;;;;;;;7.17;4.10;;;0.70;84.40;;;;;;6188122;23;20001;-87
2021/12/26 12:34:18;;;;;;;7.03;4.28;;;0.80;84.70;;;;;;6189371;23;20036;-88
2021/12/26 12:36:45;;;;;;;8.88;4.85;;;0.80;85.00;;;;;;6190225;23;20001;-86
2021/12/26 12:39:30;;;;;;;8.48;4.40;;;0.90;85.10;;;;;;6190225;23;20423;-88
2021/12/26 12:42:15;;;;;;;;;;;;;;;;;;;;;
2021/12/26 12:45:03;;;;;;;7.13;4.60;;;1.00;85.20;;;;;;6213151;23;19993;-88
2021/12/26 12:47:32;;;;;;;7.28;4.25;;;1.00;85.60;;;;;;6205243;23;20007;-88
2021/12/26 12:50:04;;;;;;;5.57;3.60;;;1.00;85.60;;;;;;6194783;23;20423;-90
2021/12/26 12:52:54;;;;;;;8.85;4.88;;;1.10;85.80;;;;;;6190719;23;20011;-88
2021/12/26 12:55:42;;;;;;;6.13;4.20;;;1.10;85.90;;;;;;6202019;23;20001;-89
2021/12/26 12:58:23;;;;;;;7.72;4.50;;;1.10;86.00;;;;;;6194618;23;20080;-85
2021/12/26 13:01:05;;;;;;;5.85;3.85;;;1.10;86.20;;;;;;6193311;23;20024;-88
2021/12/26 13:03:41;;;;;;;6.45;4.10;;;1.20;86.30;;;;;;6189630;23;20438;-88
2021/12/26 13:06:19;;;;;;;8.55;5.00;;;1.20;86.10;;;;;;6191447;23;20326;-88
2021/12/26 13:09:14;;;;;;;6.13;4.25;;;1.20;86.00;;;;;;6168137;23;20005;-86
2021/12/26 13:11:51;;;;;;;;;;;;;;;;;;;;;
2021/12/26 13:14:39;;;;;;;9.00;5.28;;;1.30;86.50;;;;;;6187743;23;20506;-88
2021/12/26 13:20:36;;;;;;;6.75;4.55;;;1.30;86.30;;;;;;6069354;23;20014;-86
2021/12/26 13:23:06;;;;;;;6.90;4.75;;;1.40;86.40;;;;;;6051648;23;20041;-88
2021/12/26 13:25:39;;;;;;;6.32;4.32;;;1.40;86.50;;;;;;6187272;23;20053;-86